createdAt,value
2023-03-03T00:01:20.498Z,33.08
2023-03-03T00:03:48.985Z,31.23
2023-03-03T00:06:19.231Z,32.63
2023-03-03T00:08:47.578Z,35.22
2023-03-03T00:11:15.945Z,35.53
2023-03-03T00:13:48.541Z,33.70
2023-03-03T00:16:23.173Z,32.75
2023-03-03T00:18:52.531Z,34.35
2023-03-03T00:21:29.131Z,33.75
2023-03-03T00:24:13.680Z,34.78
2023-03-03T00:26:43.531Z,34.85
2023-03-03T00:29:33.143Z,34.58
2023-03-03T00:32:17.747Z,35.25
2023-03-03T00:34:46.491Z,36.00
2023-03-03T00:37:29.271Z,36.33
2023-03-03T00:40:15.648Z,36.88
2023-03-03T00:42:48.200Z,35.20
2023-03-03T00:45:33.026Z,34.38
2023-03-03T00:48:17.362Z,33.33
2023-03-03T00:50:45.997Z,35.83
2023-03-03T00:53:18.310Z,35.38
2023-03-03T00:55:47.792Z,35.88
2023-03-03T00:58:16.248Z,35.25
2023-03-03T01:00:44.436Z,34.47
2023-03-03T01:03:16.958Z,33.65
2023-03-03T01:05:45.120Z,33.70
2023-03-03T01:08:15.802Z,32.67
2023-03-03T01:13:39.083Z,36.00
2023-03-03T01:16:08.779Z,33.35
2023-03-03T01:21:05.695Z,35.70
2023-03-03T01:23:35.827Z,32.30
2023-03-03T01:26:04.096Z,36.45
2023-03-03T01:28:32.234Z,35.28
2023-03-03T01:31:04.657Z,32.40
2023-03-03T01:33:33.296Z,32.38
2023-03-03T01:36:01.360Z,35.38
2023-03-03T01:38:29.764Z,31.48
2023-03-03T01:41:01.114Z,33.85
2023-03-03T01:43:31.635Z,34.30
2023-03-03T01:46:35.438Z,35.97
2023-03-03T01:49:08.394Z,31.52
2023-03-03T01:51:41.131Z,32.58
2023-03-03T01:54:16.629Z,33.20
2023-03-03T01:56:46.420Z,32.15
2023-03-03T01:59:20.083Z,36.20
2023-03-03T02:01:49.787Z,35.58
2023-03-03T02:06:52.805Z,30.60
2023-03-03T02:09:30.727Z,32.55
2023-03-03T02:12:05.579Z,32.83
2023-03-03T02:14:33.737Z,31.88
2023-03-03T02:17:01.901Z,29.75
2023-03-03T02:19:38.028Z,30.35
2023-03-03T02:22:06.079Z,31.27
2023-03-03T02:24:41.299Z,35.95
2023-03-03T02:27:10.642Z,32.10
2023-03-03T02:29:38.785Z,33.28
2023-03-03T02:32:07.753Z,34.38
2023-03-03T02:34:47.418Z,33.33
2023-03-03T02:39:45.232Z,32.75
2023-03-03T02:42:21.793Z,34.45
2023-03-03T02:44:50.045Z,35.30
2023-03-03T02:47:18.308Z,33.85
2023-03-03T02:49:47.208Z,35.60
2023-03-03T02:52:18.151Z,37.70
2023-03-03T02:54:46.974Z,37.95
2023-03-03T02:57:16.528Z,33.77
2023-03-03T02:59:44.769Z,35.65
2023-03-03T03:02:15.053Z,35.65
2023-03-03T03:04:43.251Z,37.15
2023-03-03T03:07:11.968Z,42.92
2023-03-03T03:09:40.655Z,39.63
2023-03-03T03:12:08.652Z,43.10
2023-03-03T03:14:38.195Z,40.47
2023-03-03T03:17:06.898Z,43.13
2023-03-03T03:19:34.929Z,45.17
2023-03-03T03:22:02.787Z,43.60
2023-03-03T03:24:31.442Z,46.40
2023-03-03T03:26:59.214Z,46.95
2023-03-03T03:29:27.331Z,46.25
2023-03-03T03:31:57.650Z,46.42
2023-03-03T03:34:26.036Z,48.83
2023-03-03T03:36:54.117Z,48.67
2023-03-03T03:39:24.021Z,47.78
2023-03-03T03:41:51.980Z,47.38
2023-03-03T03:44:20.258Z,45.85
2023-03-03T03:46:48.982Z,62.22
2023-03-03T03:49:20.731Z,50.00
2023-03-03T03:51:49.554Z,49.17
2023-03-03T03:54:17.677Z,53.85
2023-03-03T03:56:45.667Z,49.63
2023-03-03T03:59:14.496Z,51.95
2023-03-03T04:01:42.447Z,50.20
2023-03-03T04:04:10.165Z,50.45
2023-03-03T04:06:40.287Z,49.08
2023-03-03T04:09:08.508Z,47.80
2023-03-03T04:11:36.635Z,49.20
2023-03-03T04:14:05.591Z,58.17
2023-03-03T04:16:33.880Z,48.30
2023-03-03T04:19:01.989Z,47.83
2023-03-03T04:21:30.931Z,54.22
2023-03-03T04:24:00.681Z,60.30
2023-03-03T04:28:56.990Z,58.53
2023-03-03T04:31:25.756Z,52.47
2023-03-03T04:33:53.978Z,47.83
2023-03-03T04:36:23.114Z,56.83
2023-03-03T04:38:51.579Z,61.92
2023-03-03T04:41:21.144Z,54.50
2023-03-03T04:43:49.640Z,47.95
2023-03-03T04:46:17.716Z,49.95
2023-03-03T04:48:45.952Z,51.28
2023-03-03T04:51:15.697Z,48.25
2023-03-03T04:56:11.323Z,46.00
2023-03-03T04:58:41.670Z,54.47
2023-03-03T05:01:13.877Z,47.17
2023-03-03T05:03:42.902Z,49.40
2023-03-03T05:06:10.756Z,52.15
2023-03-03T05:08:38.997Z,49.08
2023-03-03T05:11:08.066Z,50.60
2023-03-03T05:13:36.232Z,52.47
2023-03-03T05:16:06.304Z,48.63
2023-03-03T05:18:34.633Z,49.85
2023-03-03T05:21:02.746Z,46.67
2023-03-03T05:23:31.447Z,47.40
2023-03-03T05:26:00.219Z,48.90
2023-03-03T05:28:28.511Z,45.30
2023-03-03T05:30:56.648Z,47.00
2023-03-03T05:33:27.001Z,47.65
2023-03-03T05:35:55.919Z,45.60
2023-03-03T05:38:24.499Z,45.35
2023-03-03T05:40:53.778Z,40.53
2023-03-03T05:43:22.001Z,42.00
2023-03-03T05:45:55.962Z,40.38
2023-03-03T05:48:25.972Z,41.00
2023-03-03T05:50:53.954Z,40.67
2023-03-03T05:53:22.215Z,42.15
2023-03-03T05:55:50.111Z,43.95
2023-03-03T05:58:18.065Z,43.97
2023-03-03T06:00:46.916Z,45.03
2023-03-03T06:03:15.016Z,44.67
2023-03-03T06:05:44.377Z,41.15
2023-03-03T06:08:13.237Z,41.67
2023-03-03T06:10:41.220Z,42.97
2023-03-03T06:13:09.230Z,45.55
2023-03-03T06:15:37.478Z,39.60
2023-03-03T06:18:05.573Z,43.33
2023-03-03T06:20:35.422Z,39.78
2023-03-03T06:23:05.291Z,44.78
2023-03-03T06:25:35.667Z,41.58
2023-03-03T06:28:04.084Z,37.80
2023-03-03T06:30:32.229Z,40.10
2023-03-03T06:33:00.232Z,40.28
2023-03-03T06:35:28.170Z,41.92
2023-03-03T06:37:56.688Z,39.53
2023-03-03T06:40:26.075Z,39.78
2023-03-03T06:42:53.890Z,42.83
2023-03-03T06:45:22.462Z,41.55
2023-03-03T06:47:50.861Z,42.17
2023-03-03T06:50:21.473Z,38.83
2023-03-03T06:52:50.069Z,37.35
2023-03-03T06:55:24.570Z,38.63
2023-03-03T06:57:56.484Z,42.28
2023-03-03T07:00:30.821Z,43.25
2023-03-03T07:03:01.948Z,37.03
2023-03-03T07:05:31.164Z,47.92
2023-03-03T07:07:59.175Z,45.13
2023-03-03T07:10:30.244Z,46.83
2023-03-03T07:13:19.550Z,48.05
2023-03-03T07:15:49.313Z,45.33
2023-03-03T07:18:32.707Z,44.65
2023-03-03T07:21:02.368Z,42.90
2023-03-03T07:26:01.028Z,47.75
2023-03-03T07:28:33.452Z,40.63
2023-03-03T07:31:01.481Z,43.97
2023-03-03T07:33:32.900Z,45.58
2023-03-03T07:36:01.698Z,44.30
2023-03-03T07:38:38.407Z,43.40
2023-03-03T07:41:12.254Z,45.53
2023-03-03T07:43:49.702Z,41.40
2023-03-03T07:46:31.630Z,42.50
2023-03-03T07:49:01.221Z,47.45
2023-03-03T07:51:32.142Z,43.85
2023-03-03T07:54:28.759Z,43.88
2023-03-03T07:56:59.165Z,38.90
2023-03-03T07:59:28.749Z,40.53
2023-03-03T08:01:58.962Z,42.97
2023-03-03T08:04:33.133Z,41.88
2023-03-03T08:07:03.364Z,45.78
2023-03-03T08:09:40.576Z,42.45
2023-03-03T08:12:32.988Z,43.20
2023-03-03T08:15:17.838Z,44.00
2023-03-03T08:17:46.200Z,49.55
2023-03-03T08:20:53.445Z,44.85
2023-03-03T08:23:22.157Z,47.92
2023-03-03T08:25:51.530Z,46.50
2023-03-03T08:28:20.338Z,41.40
2023-03-03T08:30:50.366Z,45.15
2023-03-03T08:33:18.463Z,43.30
2023-03-03T08:35:47.053Z,43.03
2023-03-03T08:38:17.353Z,45.45
2023-03-03T08:40:45.427Z,39.45
2023-03-03T08:43:17.050Z,40.05
2023-03-03T08:45:47.139Z,45.72
2023-03-03T08:48:16.307Z,42.40
2023-03-03T08:50:45.044Z,40.35
2023-03-03T08:56:02.719Z,38.63
2023-03-03T08:58:35.413Z,42.17
2023-03-03T09:01:03.448Z,45.35
2023-03-03T09:03:33.088Z,56.40
2023-03-03T09:06:00.755Z,53.97
2023-03-03T09:08:28.446Z,42.13
2023-03-03T09:10:56.693Z,37.20
2023-03-03T09:13:25.879Z,34.75
2023-03-03T09:15:53.646Z,36.92
2023-03-03T09:18:23.813Z,37.15
2023-03-03T09:20:57.352Z,35.97
2023-03-03T09:23:36.261Z,33.63
2023-03-03T09:26:28.046Z,33.80
2023-03-03T09:29:18.613Z,37.55
2023-03-03T09:31:49.585Z,31.58
2023-03-03T09:34:22.363Z,37.85
2023-03-03T09:36:52.533Z,36.33
2023-03-03T09:39:21.741Z,33.88
2023-03-03T09:42:21.855Z,37.08
2023-03-03T09:45:27.992Z,35.22
2023-03-03T09:48:49.421Z,31.08
2023-03-03T09:51:36.502Z,33.20
2023-03-03T09:54:19.692Z,32.90
2023-03-03T09:56:54.160Z,35.90
2023-03-03T09:59:32.370Z,36.58
2023-03-03T10:02:17.056Z,33.30
2023-03-03T10:05:07.071Z,34.53
2023-03-03T10:07:44.890Z,38.72
2023-03-03T10:10:24.899Z,36.00
2023-03-03T10:13:07.742Z,37.30
2023-03-03T10:15:45.415Z,34.67
2023-03-03T10:18:25.882Z,35.88
2023-03-03T10:21:12.294Z,32.22
2023-03-03T10:23:56.295Z,35.75
2023-03-03T10:26:46.471Z,36.45
2023-03-03T10:29:30.437Z,36.95
2023-03-03T10:32:19.170Z,38.42
2023-03-03T10:35:00.770Z,38.15
2023-03-03T10:37:40.452Z,43.13
2023-03-03T10:43:31.164Z,37.47
2023-03-03T10:46:21.744Z,38.72
2023-03-03T10:49:16.426Z,40.58
2023-03-03T10:52:08.634Z,40.60
2023-03-03T10:54:58.766Z,38.95
2023-03-03T10:57:36.232Z,40.30
2023-03-03T11:00:22.683Z,38.78
2023-03-03T11:03:37.523Z,33.15
2023-03-03T11:06:12.832Z,34.50
2023-03-03T11:08:45.235Z,37.85
2023-03-03T11:11:25.589Z,35.85
2023-03-03T11:14:00.975Z,37.92
2023-03-03T11:16:47.858Z,37.45
2023-03-03T11:19:52.709Z,37.22
2023-03-03T11:22:35.174Z,34.28
2023-03-03T11:25:16.485Z,39.10
2023-03-03T11:28:05.323Z,36.08
2023-03-03T11:30:46.211Z,37.63
2023-03-03T11:33:20.364Z,37.45
2023-03-03T11:36:01.132Z,36.88
2023-03-03T11:38:46.583Z,41.88
2023-03-03T11:41:24.422Z,44.63
2023-03-03T11:43:56.192Z,50.47
2023-03-03T11:46:27.851Z,39.65
2023-03-03T11:49:01.359Z,43.03
2023-03-03T11:51:42.131Z,37.75
2023-03-03T11:54:17.116Z,34.90
2023-03-03T11:56:46.789Z,36.35
2023-03-03T12:02:22.487Z,37.30
2023-03-03T12:04:55.041Z,34.42
2023-03-03T12:07:35.169Z,33.10
2023-03-03T12:10:24.837Z,40.72
2023-03-03T12:15:33.221Z,37.15
2023-03-03T12:18:24.317Z,34.80
2023-03-03T12:21:05.378Z,32.78
2023-03-03T12:23:53.346Z,29.95
2023-03-03T12:26:28.537Z,34.72
2023-03-03T12:29:00.194Z,33.08
2023-03-03T12:31:39.458Z,32.85
2023-03-03T12:34:16.848Z,30.55
2023-03-03T12:36:58.156Z,33.10
2023-03-03T12:39:39.275Z,32.65
2023-03-03T12:42:16.138Z,35.28
2023-03-03T12:44:52.075Z,31.67
2023-03-03T12:47:26.614Z,31.67
2023-03-03T12:50:08.299Z,35.72
2023-03-03T12:52:47.655Z,32.20
2023-03-03T12:55:26.712Z,33.40
2023-03-03T12:58:04.557Z,33.63
2023-03-03T13:00:44.731Z,31.48
2023-03-03T13:03:30.340Z,30.30
2023-03-03T13:06:05.939Z,31.20
2023-03-03T13:08:50.693Z,32.35
2023-03-03T13:11:34.047Z,29.20
2023-03-03T13:14:12.881Z,27.77
2023-03-03T13:16:45.685Z,28.17
2023-03-03T13:19:20.622Z,27.50
2023-03-03T13:21:51.950Z,27.48
2023-03-03T13:24:26.510Z,30.73
2023-03-03T13:27:00.799Z,28.48
2023-03-03T13:29:36.196Z,29.27
2023-03-03T13:32:13.331Z,29.75
2023-03-03T13:34:51.072Z,29.98
2023-03-03T13:37:22.821Z,36.65
2023-03-03T13:40:00.232Z,30.40
2023-03-03T13:42:36.181Z,27.48
2023-03-03T13:45:15.220Z,30.33
2023-03-03T13:47:49.940Z,29.30
2023-03-03T13:50:24.341Z,29.33
2023-03-03T13:53:06.544Z,30.45
2023-03-03T13:55:41.184Z,28.40
2023-03-03T13:58:19.723Z,28.70
2023-03-03T14:01:01.880Z,27.25
2023-03-03T14:03:55.205Z,29.20
2023-03-03T14:06:25.041Z,27.67
2023-03-03T14:09:21.134Z,26.80
2023-03-03T14:11:57.557Z,32.55
2023-03-03T14:14:37.678Z,27.77
2023-03-03T14:17:14.011Z,28.88
2023-03-03T14:19:45.820Z,26.50
2023-03-03T14:22:23.791Z,27.15
2023-03-03T14:25:00.795Z,29.73
2023-03-03T14:27:34.976Z,29.25
2023-03-03T14:30:29.002Z,44.80
2023-03-03T14:33:02.631Z,32.00
2023-03-03T14:35:33.416Z,30.42
2023-03-03T14:38:03.896Z,39.33
2023-03-03T14:40:33.413Z,37.72
2023-03-03T14:43:03.768Z,29.02
2023-03-03T14:45:36.819Z,29.35
2023-03-03T14:48:17.222Z,26.38
2023-03-03T14:50:51.190Z,24.98
2023-03-03T14:53:33.393Z,30.27
2023-03-03T14:56:17.926Z,26.63
2023-03-03T14:58:46.394Z,26.88
2023-03-03T15:01:24.324Z,22.35
2023-03-03T15:04:01.683Z,23.02
2023-03-03T15:06:34.606Z,23.67
2023-03-03T15:09:29.967Z,25.10
2023-03-03T15:11:59.576Z,23.98
2023-03-03T15:14:33.145Z,37.15
2023-03-03T15:17:21.465Z,24.67
2023-03-03T15:20:00.133Z,21.65
2023-03-03T15:22:44.365Z,19.97
2023-03-03T15:25:21.110Z,22.02
2023-03-03T15:27:53.422Z,17.95
2023-03-03T15:30:30.634Z,19.02
2023-03-03T15:33:06.057Z,19.70
2023-03-03T15:35:45.749Z,19.05
2023-03-03T15:40:51.500Z,19.02
2023-03-03T15:43:27.760Z,19.25
2023-03-03T15:46:09.974Z,17.58
2023-03-03T15:48:52.924Z,17.05
2023-03-03T15:51:46.079Z,17.52
2023-03-03T15:54:37.022Z,19.63
2023-03-03T15:57:13.428Z,19.75
2023-03-03T16:00:16.057Z,18.85
2023-03-03T16:02:53.680Z,19.08
2023-03-03T16:05:25.353Z,19.42
2023-03-03T16:08:06.471Z,19.45
2023-03-03T16:10:45.250Z,19.48
2023-03-03T16:13:24.207Z,27.15
2023-03-03T16:16:08.245Z,21.52
2023-03-03T16:18:50.553Z,17.13
2023-03-03T16:21:31.119Z,15.80
2023-03-03T16:24:03.718Z,14.70
2023-03-03T16:26:43.356Z,16.77
2023-03-03T16:31:54.402Z,15.55
2023-03-03T16:34:31.647Z,14.85
2023-03-03T16:37:08.209Z,15.35
2023-03-03T16:42:40.321Z,12.73
2023-03-03T16:45:25.340Z,14.25
2023-03-03T16:48:20.912Z,18.30
2023-03-03T16:51:00.328Z,12.30
2023-03-03T16:53:44.330Z,12.70
2023-03-03T16:56:18.999Z,14.90
2023-03-03T16:58:57.744Z,14.02
2023-03-03T17:01:34.681Z,12.40
2023-03-03T17:04:03.722Z,11.95
2023-03-03T17:06:41.511Z,21.02
2023-03-03T17:09:33.059Z,20.10
2023-03-03T17:12:15.084Z,31.80
2023-03-03T17:15:05.516Z,20.20
2023-03-03T17:17:43.092Z,21.88
2023-03-03T17:20:29.078Z,29.40
2023-03-03T17:23:12.290Z,32.72
2023-03-03T17:25:46.548Z,22.70
2023-03-03T17:28:27.750Z,15.57
2023-03-03T17:31:01.498Z,12.40
2023-03-03T17:33:44.796Z,13.00
2023-03-03T17:36:35.797Z,17.48
2023-03-03T17:39:20.385Z,14.07
2023-03-03T17:41:59.219Z,13.98
2023-03-03T17:44:35.552Z,29.73
2023-03-03T17:47:06.931Z,16.90
2023-03-03T17:50:05.668Z,15.70
2023-03-03T17:52:50.712Z,15.20
2023-03-03T17:55:36.888Z,17.33
2023-03-03T17:58:35.717Z,14.95
2023-03-03T18:01:15.633Z,22.02
2023-03-03T18:04:00.127Z,19.33
2023-03-03T18:06:44.124Z,22.30
2023-03-03T18:09:28.126Z,26.35
2023-03-03T18:12:05.337Z,48.90
2023-03-03T18:15:07.357Z,31.85
2023-03-03T18:17:41.597Z,20.65
2023-03-03T18:20:48.498Z,21.83
2023-03-03T18:23:43.593Z,17.52
2023-03-03T18:26:41.332Z,18.38
2023-03-03T18:29:21.213Z,19.38
2023-03-03T18:32:03.798Z,22.63
2023-03-03T18:34:37.878Z,19.50
2023-03-03T18:37:10.623Z,13.52
2023-03-03T18:39:46.093Z,15.50
2023-03-03T18:42:38.912Z,17.52
2023-03-03T18:45:50.432Z,17.38
2023-03-03T18:48:22.028Z,15.20
2023-03-03T18:50:53.110Z,16.30
2023-03-03T18:53:28.463Z,13.30
2023-03-03T18:55:58.468Z,12.50
2023-03-03T18:58:33.962Z,13.00
2023-03-03T19:01:12.842Z,17.33
2023-03-03T19:04:10.209Z,12.15
2023-03-03T19:06:58.082Z,12.50
2023-03-03T19:09:53.025Z,12.88
2023-03-03T19:12:52.630Z,16.70
2023-03-03T19:18:16.467Z,19.38
2023-03-03T19:20:48.076Z,23.75
2023-03-03T19:23:18.534Z,20.52
2023-03-03T19:25:46.260Z,21.65
2023-03-03T19:28:37.258Z,20.40
2023-03-03T19:31:12.448Z,16.80
2023-03-03T19:33:54.578Z,19.52
2023-03-03T19:36:40.661Z,18.48
2023-03-03T19:39:53.787Z,20.92
2023-03-03T19:42:39.959Z,13.98
2023-03-03T19:45:19.709Z,12.07
2023-03-03T19:47:53.089Z,13.63
2023-03-03T19:50:32.918Z,17.75
2023-03-03T19:53:08.684Z,13.00
2023-03-03T19:55:49.667Z,15.27
2023-03-03T19:58:30.305Z,13.57
2023-03-03T20:01:08.568Z,14.60
2023-03-03T20:04:06.667Z,15.35
2023-03-03T20:06:45.069Z,17.60
2023-03-03T20:09:24.790Z,16.90
2023-03-03T20:12:04.323Z,15.80
2023-03-03T20:14:45.876Z,18.63
2023-03-03T20:17:44.608Z,16.83
2023-03-03T20:20:37.968Z,22.17
2023-03-03T20:23:21.627Z,36.85
2023-03-03T20:25:57.405Z,50.97
2023-03-03T20:28:55.141Z,38.65
2023-03-03T20:31:28.698Z,36.25
2023-03-03T20:34:10.741Z,44.45
2023-03-03T20:36:50.331Z,35.13
2023-03-03T20:42:05.974Z,14.50
2023-03-03T20:44:50.109Z,10.68
2023-03-03T20:47:28.637Z,16.73
2023-03-03T20:50:19.957Z,13.75
2023-03-03T20:52:59.338Z,15.27
2023-03-03T20:55:39.849Z,12.05
2023-03-03T20:58:16.411Z,11.23
2023-03-03T21:00:53.067Z,13.40
2023-03-03T21:03:28.678Z,11.80
2023-03-03T21:06:00.166Z,11.68
2023-03-03T21:08:46.483Z,12.23
2023-03-03T21:11:16.357Z,10.65
2023-03-03T21:13:46.338Z,9.93
2023-03-03T21:16:30.406Z,11.27
2023-03-03T21:18:58.825Z,11.65
2023-03-03T21:21:28.110Z,12.15
2023-03-03T21:23:55.963Z,11.20
2023-03-03T21:26:54.449Z,10.98
2023-03-03T21:29:26.212Z,10.77
2023-03-03T21:31:56.358Z,12.07
2023-03-03T21:34:29.685Z,11.77
2023-03-03T21:36:58.309Z,13.05
2023-03-03T21:39:31.834Z,11.27
2023-03-03T21:42:02.719Z,11.98
2023-03-03T21:44:37.679Z,13.35
2023-03-03T21:47:07.353Z,13.77
2023-03-03T21:52:03.002Z,12.73
2023-03-03T21:54:30.663Z,14.02
2023-03-03T21:56:58.351Z,13.70
2023-03-03T21:59:26.280Z,13.02
2023-03-03T22:01:55.283Z,13.45
2023-03-03T22:04:23.095Z,13.38
2023-03-03T22:06:52.865Z,15.13
2023-03-03T22:09:21.059Z,14.50
2023-03-03T22:11:48.964Z,14.60
2023-03-03T22:14:16.912Z,16.17
2023-03-03T22:16:44.592Z,14.77
2023-03-03T22:19:13.646Z,14.85
2023-03-03T22:21:42.090Z,16.15
2023-03-03T22:24:10.221Z,17.92
2023-03-03T22:26:37.872Z,17.27
2023-03-03T22:29:06.658Z,16.98
2023-03-03T22:31:34.569Z,19.17
2023-03-03T22:34:02.257Z,18.92
2023-03-03T22:36:32.176Z,17.85
2023-03-03T22:39:00.850Z,17.75
2023-03-03T22:41:28.511Z,18.20
2023-03-03T22:43:56.564Z,18.77
2023-03-03T22:46:24.639Z,18.17
2023-03-03T22:48:52.323Z,17.48
2023-03-03T22:51:22.536Z,16.88
2023-03-03T22:53:51.556Z,16.48
2023-03-03T22:56:19.207Z,18.85
2023-03-03T22:58:47.219Z,16.67
2023-03-03T23:01:14.874Z,16.73
2023-03-03T23:03:42.561Z,16.42
2023-03-03T23:06:10.806Z,16.58
2023-03-03T23:08:38.511Z,15.55
2023-03-03T23:11:07.655Z,15.32
2023-03-03T23:13:36.712Z,18.15
2023-03-03T23:16:04.691Z,13.95
2023-03-03T23:18:32.540Z,14.63
2023-03-03T23:21:00.789Z,18.90
2023-03-03T23:23:29.588Z,14.25
2023-03-03T23:25:57.817Z,14.30
2023-03-03T23:28:27.345Z,12.63
2023-03-03T23:30:54.974Z,15.55
2023-03-03T23:33:22.751Z,12.80
2023-03-03T23:35:50.963Z,16.05
2023-03-03T23:38:18.616Z,17.63
2023-03-03T23:40:47.597Z,15.50
2023-03-03T23:43:15.978Z,14.23
2023-03-03T23:45:44.990Z,14.23
2023-03-03T23:48:12.698Z,19.05
2023-03-03T23:50:41.133Z,15.98
2023-03-03T23:53:09.336Z,13.98
2023-03-03T23:55:37.615Z,13.98
2023-03-03T23:58:07.229Z,18.17
